createdAt,value
2022-08-31T00:03:56.360Z,11.32
2022-08-31T00:07:57.795Z,5.57
2022-08-31T00:12:00.030Z,7.65
2022-08-31T00:16:01.727Z,6.35
2022-08-31T00:20:04.980Z,6.07
2022-08-31T00:24:06.505Z,6.75
2022-08-31T00:28:08.782Z,6.55
2022-08-31T00:32:10.331Z,8.65
2022-08-31T00:36:13.848Z,7.95
2022-08-31T00:40:15.855Z,9.05
2022-08-31T00:44:17.465Z,8.90
2022-08-31T00:48:18.954Z,7.78
2022-08-31T00:52:29.379Z,8.60
2022-08-31T00:56:36.089Z,8.52
2022-08-31T01:00:40.545Z,9.40
2022-08-31T01:04:42.303Z,12.95
2022-08-31T01:08:45.393Z,11.07
2022-08-31T01:12:48.117Z,11.73
2022-08-31T01:16:58.510Z,12.10
2022-08-31T01:21:02.866Z,14.30
2022-08-31T01:25:04.918Z,12.05
2022-08-31T01:29:06.905Z,12.65
2022-08-31T01:33:09.457Z,15.88
2022-08-31T01:37:11.928Z,16.75
2022-08-31T01:41:14.941Z,11.55
2022-08-31T01:45:17.435Z,17.25
2022-08-31T01:49:20.727Z,16.73
2022-08-31T01:53:22.233Z,16.67
2022-08-31T01:57:33.442Z,13.20
2022-08-31T02:01:40.831Z,14.85
2022-08-31T02:05:43.394Z,11.50
2022-08-31T02:09:44.798Z,10.93
2022-08-31T02:13:46.303Z,12.00
2022-08-31T02:17:47.839Z,15.25
2022-08-31T02:21:54.190Z,10.75
2022-08-31T02:25:55.870Z,14.43
2022-08-31T02:29:57.444Z,15.02
2022-08-31T02:33:58.938Z,12.18
2022-08-31T02:38:01.055Z,14.02
2022-08-31T02:42:02.552Z,11.80
2022-08-31T02:46:04.266Z,12.75
2022-08-31T02:50:06.894Z,15.15
2022-08-31T02:54:08.743Z,12.70
2022-08-31T02:58:11.925Z,12.20
2022-08-31T03:02:13.916Z,12.95
2022-08-31T03:06:16.230Z,11.55
2022-08-31T03:10:21.182Z,10.15
2022-08-31T03:14:22.605Z,11.18
2022-08-31T03:18:24.097Z,11.90
2022-08-31T03:22:25.529Z,12.15
2022-08-31T03:26:27.797Z,19.70
2022-08-31T03:30:29.947Z,18.40
2022-08-31T03:34:33.024Z,14.82
2022-08-31T03:38:34.576Z,14.35
2022-08-31T03:42:36.327Z,14.80
2022-08-31T03:46:37.819Z,16.95
2022-08-31T03:50:39.403Z,15.13
2022-08-31T03:54:40.860Z,15.80
2022-08-31T03:58:42.433Z,13.65
2022-08-31T04:02:44.063Z,14.43
2022-08-31T04:06:45.545Z,13.07
2022-08-31T04:10:50.062Z,12.55
2022-08-31T04:14:51.482Z,11.38
2022-08-31T04:18:53.047Z,14.25
2022-08-31T04:22:54.746Z,14.70
2022-08-31T04:26:56.172Z,15.70
2022-08-31T04:30:57.642Z,13.88
2022-08-31T04:34:59.605Z,15.35
2022-08-31T04:39:02.850Z,15.68
2022-08-31T04:43:04.536Z,10.60
2022-08-31T04:47:07.467Z,12.95
2022-08-31T04:51:15.405Z,11.88
2022-08-31T04:55:17.694Z,16.08
2022-08-31T04:59:19.258Z,12.48
2022-08-31T05:03:20.754Z,14.82
2022-08-31T05:07:22.509Z,11.15
2022-08-31T05:11:25.450Z,12.55
2022-08-31T05:15:27.618Z,12.02
2022-08-31T05:19:29.038Z,9.90
2022-08-31T05:23:30.506Z,8.90
2022-08-31T05:27:31.925Z,12.07
2022-08-31T05:31:33.540Z,10.73
2022-08-31T05:35:35.420Z,10.63
2022-08-31T05:39:36.905Z,10.68
2022-08-31T05:43:39.279Z,10.50
2022-08-31T05:47:40.951Z,11.63
2022-08-31T05:51:42.419Z,11.23
2022-08-31T05:55:43.829Z,12.48
2022-08-31T05:59:45.353Z,9.35
2022-08-31T06:03:47.268Z,8.98
2022-08-31T06:07:48.832Z,10.63
2022-08-31T06:11:51.385Z,9.27
2022-08-31T06:15:53.493Z,9.10
2022-08-31T06:19:58.067Z,10.18
2022-08-31T06:24:01.529Z,10.63
2022-08-31T06:28:06.768Z,10.60
2022-08-31T06:32:10.278Z,10.10
2022-08-31T06:36:14.067Z,10.93
2022-08-31T06:40:16.285Z,11.73
2022-08-31T06:44:20.917Z,14.38
2022-08-31T06:48:22.315Z,15.00
2022-08-31T06:52:24.190Z,16.45
2022-08-31T06:56:26.067Z,18.35
2022-08-31T07:00:27.493Z,14.55
2022-08-31T07:04:34.786Z,16.58
2022-08-31T07:08:37.376Z,15.18
2022-08-31T07:12:38.875Z,13.25
2022-08-31T07:16:40.655Z,15.93
2022-08-31T07:20:42.240Z,11.73
2022-08-31T07:24:43.865Z,15.13
2022-08-31T07:28:45.344Z,16.80
2022-08-31T07:32:46.931Z,21.05
2022-08-31T07:37:06.755Z,16.33
2022-08-31T07:41:29.908Z,11.57
2022-08-31T07:45:35.598Z,15.65
2022-08-31T07:53:50.487Z,15.43
2022-08-31T07:57:54.801Z,14.18
2022-08-31T08:01:56.700Z,16.38
2022-08-31T08:05:58.269Z,13.43
2022-08-31T08:10:06.963Z,14.57
2022-08-31T08:14:09.374Z,15.70
2022-08-31T08:18:13.342Z,10.93
2022-08-31T08:22:22.459Z,11.77
2022-08-31T08:26:32.224Z,17.13
2022-08-31T08:30:33.902Z,13.38
2022-08-31T08:34:40.813Z,14.05
2022-08-31T08:38:47.236Z,15.10
2022-08-31T08:42:48.729Z,14.75
2022-08-31T08:46:55.277Z,12.50
2022-08-31T08:50:56.915Z,12.15
2022-08-31T08:55:09.540Z,10.40
2022-08-31T08:59:15.974Z,14.45
2022-08-31T09:03:21.370Z,11.82
2022-08-31T09:07:46.608Z,13.02
2022-08-31T09:11:58.316Z,12.23
2022-08-31T09:16:04.732Z,12.48
2022-08-31T09:20:07.807Z,11.10
2022-08-31T09:24:12.901Z,10.00
2022-08-31T09:28:16.368Z,9.60
2022-08-31T09:32:26.379Z,11.20
2022-08-31T09:36:41.009Z,11.50
2022-08-31T09:40:45.469Z,17.73
2022-08-31T09:44:50.435Z,15.15
2022-08-31T09:48:53.415Z,15.23
2022-08-31T09:53:41.847Z,12.32
2022-08-31T09:57:56.334Z,13.57
2022-08-31T10:02:00.618Z,14.30
2022-08-31T10:06:04.373Z,12.75
2022-08-31T10:10:28.250Z,14.98
2022-08-31T10:14:51.246Z,14.20
2022-08-31T10:19:06.793Z,16.60
2022-08-31T10:23:34.930Z,17.35
2022-08-31T10:27:40.893Z,14.05
2022-08-31T10:31:48.656Z,14.13
2022-08-31T10:35:51.726Z,16.25
2022-08-31T10:39:59.005Z,18.67
2022-08-31T10:44:03.466Z,16.90
2022-08-31T10:48:05.151Z,16.33
2022-08-31T10:52:17.204Z,18.42
2022-08-31T10:56:41.502Z,15.55
2022-08-31T11:01:16.397Z,15.73
2022-08-31T11:05:35.295Z,21.10
2022-08-31T11:10:24.571Z,15.57
2022-08-31T11:14:30.969Z,15.35
2022-08-31T11:19:09.250Z,17.23
2022-08-31T11:23:34.978Z,14.43
2022-08-31T11:27:50.176Z,15.60
2022-08-31T11:31:55.114Z,13.55
2022-08-31T11:36:06.341Z,14.18
2022-08-31T11:40:11.619Z,11.27
2022-08-31T11:44:29.739Z,11.70
2022-08-31T11:48:57.714Z,13.35
2022-08-31T11:53:01.190Z,13.57
2022-08-31T11:57:03.393Z,12.95
2022-08-31T12:01:13.038Z,14.80
2022-08-31T12:05:57.943Z,12.43
2022-08-31T12:10:14.919Z,14.27
2022-08-31T12:14:24.657Z,11.63
2022-08-31T12:18:39.545Z,12.90
2022-08-31T12:23:30.140Z,14.30
2022-08-31T12:27:44.138Z,12.70
2022-08-31T12:32:01.387Z,12.30
2022-08-31T12:36:15.549Z,13.70
2022-08-31T12:40:20.509Z,14.38
2022-08-31T12:44:34.468Z,20.17
2022-08-31T12:48:45.102Z,14.70
2022-08-31T12:53:05.104Z,15.48
2022-08-31T12:57:12.595Z,16.08
2022-08-31T13:01:17.524Z,13.30
2022-08-31T13:05:22.377Z,11.35
2022-08-31T13:09:29.046Z,14.35
2022-08-31T13:13:30.560Z,14.57
2022-08-31T13:17:39.607Z,12.63
2022-08-31T13:21:41.464Z,13.95
2022-08-31T13:25:43.255Z,12.52
2022-08-31T13:29:45.736Z,12.43
2022-08-31T13:33:48.451Z,12.32
2022-08-31T13:38:05.033Z,15.15
2022-08-31T13:42:34.137Z,11.93
2022-08-31T13:46:43.218Z,14.38
2022-08-31T13:50:52.931Z,19.40
2022-08-31T13:55:08.191Z,14.43
2022-08-31T13:59:24.438Z,12.60
2022-08-31T14:03:46.593Z,12.75
2022-08-31T14:07:54.907Z,13.30
2022-08-31T14:12:05.463Z,13.68
2022-08-31T14:16:08.187Z,11.30
2022-08-31T14:20:36.113Z,11.93
2022-08-31T14:24:37.626Z,12.85
2022-08-31T14:28:40.784Z,13.35
2022-08-31T14:32:45.778Z,13.15
2022-08-31T14:37:07.706Z,11.98
2022-08-31T14:41:11.534Z,13.13
2022-08-31T14:45:19.179Z,10.25
2022-08-31T14:53:22.122Z,12.90
2022-08-31T14:57:25.635Z,13.70
2022-08-31T15:01:28.074Z,11.75
2022-08-31T15:05:29.568Z,10.27
2022-08-31T15:09:34.718Z,14.80
2022-08-31T15:13:39.448Z,12.20
2022-08-31T15:17:41.081Z,10.23
2022-08-31T15:21:52.717Z,11.80
2022-08-31T15:26:06.637Z,11.88
2022-08-31T15:30:09.540Z,14.55
2022-08-31T15:34:11.303Z,10.05
2022-08-31T15:38:12.810Z,10.07
2022-08-31T15:42:20.783Z,13.52
2022-08-31T15:46:43.644Z,11.43
2022-08-31T15:50:52.714Z,20.35
2022-08-31T15:54:55.209Z,17.15
2022-08-31T15:58:59.954Z,9.20
2022-08-31T16:03:01.501Z,11.30
2022-08-31T16:07:05.197Z,10.57
2022-08-31T16:11:10.436Z,9.00
2022-08-31T16:15:12.994Z,12.90
2022-08-31T16:19:34.028Z,11.02
2022-08-31T16:23:36.007Z,11.70
2022-08-31T16:27:39.827Z,14.02
2022-08-31T16:31:43.474Z,11.93
2022-08-31T16:35:45.738Z,9.88
2022-08-31T16:39:47.264Z,12.35
2022-08-31T16:44:03.483Z,10.40
2022-08-31T16:48:29.962Z,9.52
2022-08-31T16:52:32.525Z,8.43
2022-08-31T16:56:36.677Z,9.77
2022-08-31T17:00:38.137Z,8.32
2022-08-31T17:04:52.005Z,8.52
2022-08-31T17:09:01.788Z,10.65
2022-08-31T17:13:03.375Z,8.27
2022-08-31T17:17:06.570Z,7.65
2022-08-31T17:21:15.034Z,7.40
2022-08-31T17:25:16.676Z,7.53
2022-08-31T17:29:20.673Z,7.93
2022-08-31T17:33:22.860Z,8.50
2022-08-31T17:37:27.818Z,9.60
2022-08-31T17:41:29.392Z,8.75
2022-08-31T17:45:30.852Z,7.35
2022-08-31T17:49:37.870Z,8.60
2022-08-31T17:53:39.839Z,7.95
2022-08-31T17:57:42.368Z,7.95
2022-08-31T18:01:45.536Z,6.88
2022-08-31T18:05:48.006Z,9.05
2022-08-31T18:09:50.744Z,8.57
2022-08-31T18:13:53.747Z,9.98
2022-08-31T18:17:55.873Z,9.18
2022-08-31T18:21:57.369Z,11.23
2022-08-31T18:25:58.827Z,9.93
2022-08-31T18:30:00.805Z,11.38
2022-08-31T18:34:05.807Z,9.18
2022-08-31T18:38:12.467Z,11.43
2022-08-31T18:42:32.588Z,20.15
2022-08-31T18:46:34.757Z,28.60
2022-08-31T18:50:38.569Z,28.65
2022-08-31T18:54:41.085Z,21.45
2022-08-31T18:58:43.566Z,17.05
2022-08-31T19:02:45.872Z,12.70
2022-08-31T19:06:47.417Z,14.23
2022-08-31T19:10:49.158Z,12.25
2022-08-31T19:14:51.162Z,15.27
2022-08-31T19:18:56.148Z,11.45
2022-08-31T19:22:57.587Z,10.10
2022-08-31T19:27:04.719Z,14.30
2022-08-31T19:31:09.577Z,10.50
2022-08-31T19:35:11.894Z,15.73
2022-08-31T19:39:16.410Z,9.55
2022-08-31T19:47:44.575Z,11.75
2022-08-31T19:51:51.891Z,12.02
2022-08-31T19:55:55.035Z,13.15
2022-08-31T19:59:56.609Z,16.92
2022-08-31T20:03:58.244Z,11.98
2022-08-31T20:07:59.710Z,15.65
2022-08-31T20:12:02.313Z,14.30
2022-08-31T20:16:05.028Z,19.33
2022-08-31T20:20:08.834Z,12.77
2022-08-31T20:24:15.009Z,13.95
2022-08-31T20:28:17.636Z,15.38
2022-08-31T20:32:19.796Z,14.68
2022-08-31T20:36:27.841Z,15.98
2022-08-31T20:40:29.575Z,15.73
2022-08-31T20:44:34.993Z,14.68
2022-08-31T20:48:54.861Z,15.48
2022-08-31T20:52:56.919Z,20.10
2022-08-31T20:57:00.465Z,13.85
2022-08-31T21:01:06.953Z,15.70
2022-08-31T21:05:37.073Z,18.52
2022-08-31T21:09:31.825Z,16.95
2022-08-31T21:13:33.284Z,18.55
2022-08-31T21:17:35.364Z,15.80
2022-08-31T21:21:36.899Z,14.38
2022-08-31T21:25:44.012Z,15.02
2022-08-31T21:29:47.157Z,13.18
2022-08-31T21:33:48.630Z,16.13
2022-08-31T21:37:50.118Z,17.40
2022-08-31T21:41:56.521Z,16.20
2022-08-31T21:46:27.993Z,15.38
2022-08-31T21:50:29.594Z,13.63
2022-08-31T21:54:31.050Z,13.40
2022-08-31T21:58:32.615Z,12.82
2022-08-31T22:02:34.083Z,14.98
2022-08-31T22:06:36.757Z,17.00
2022-08-31T22:10:41.032Z,16.92
2022-08-31T22:14:44.723Z,15.55
2022-08-31T22:19:06.730Z,18.00
2022-08-31T22:23:09.299Z,14.10
2022-08-31T22:27:12.057Z,13.38
2022-08-31T22:31:14.818Z,13.90
2022-08-31T22:35:16.967Z,17.77
2022-08-31T22:39:22.244Z,18.10
2022-08-31T22:43:24.041Z,16.33
2022-08-31T22:47:25.505Z,13.07
2022-08-31T22:51:27.480Z,15.73
2022-08-31T22:55:29.024Z,13.85
2022-08-31T22:59:30.748Z,16.77
2022-08-31T23:03:32.198Z,14.10
2022-08-31T23:07:35.226Z,14.75
2022-08-31T23:11:38.157Z,17.52
2022-08-31T23:15:40.232Z,19.27
2022-08-31T23:19:43.743Z,19.42
2022-08-31T23:23:45.809Z,19.13
2022-08-31T23:27:49.110Z,16.73
2022-08-31T23:31:51.857Z,25.52
2022-08-31T23:35:56.076Z,17.35
2022-08-31T23:39:59.182Z,13.25
2022-08-31T23:44:04.780Z,20.88
2022-08-31T23:48:06.336Z,16.42
2022-08-31T23:52:08.588Z,17.10
2022-08-31T23:56:11.554Z,12.13
